Time;durP1;ratioP1;P1;durP2;ratioP2;P2;SDS_P1;SDS_P2;PMS_P1;PMS_P2;Temp;Humidity;BMP_temperature;BMP_pressure;BME280_temperature;BME280_humidity;BME280_pressure;Samples;Min_cycle;Max_cycle;Signal;HPM_P1;HPM_P2
2022/06/14 00:01:10;;;;;;;4.40;2.17;;;11.50;99.90;;;;;;5046769;28;20314;-48
2022/06/14 00:03:40;;;;;;;4.73;1.40;;;11.50;99.90;;;;;;5045104;28;20217;-46
2022/06/14 00:06:10;;;;;;;3.77;1.23;;;11.50;99.90;;;;;;5043857;28;20901;-48
2022/06/14 00:08:38;;;;;;;6.70;1.70;;;11.40;99.90;;;;;;5045408;28;20215;-47
2022/06/14 00:11:08;;;;;;;2.97;1.60;;;11.40;99.90;;;;;;5035805;28;24342;-45
2022/06/14 00:13:35;;;;;;;7.70;1.73;;;11.40;99.90;;;;;;5050889;28;20265;-47
2022/06/14 00:16:05;;;;;;;6.23;2.13;;;11.30;99.90;;;;;;5040382;28;20206;-46
2022/06/14 00:18:31;;;;;;;8.53;1.40;;;11.30;99.90;;;;;;5046060;28;20233;-46
2022/06/14 00:20:58;;;;;;;6.13;2.07;;;11.30;99.90;;;;;;5041892;28;20211;-47
2022/06/14 00:23:25;;;;;;;4.57;1.47;;;11.30;99.90;;;;;;5053701;28;20195;-45
2022/06/14 00:25:55;;;;;;;5.90;2.30;;;11.20;99.90;;;;;;5042891;28;20198;-46
2022/06/14 00:28:25;;;;;;;8.47;1.90;;;11.20;99.90;;;;;;5053355;28;20656;-45
2022/06/14 00:30:54;;;;;;;9.27;1.93;;;11.20;99.90;;;;;;5047324;28;20226;-47
2022/06/14 00:33:22;;;;;;;9.60;1.83;;;11.20;99.90;;;;;;5045417;28;20216;-45
2022/06/14 00:35:48;;;;;;;2.60;1.50;;;11.20;99.90;;;;;;5041768;28;20199;-46
2022/06/14 00:38:16;;;;;;;5.40;1.63;;;11.10;99.90;;;;;;5045254;28;20203;-46
2022/06/14 00:40:51;;;;;;;5.23;1.57;;;11.20;99.90;;;;;;5037769;28;20318;-49
2022/06/14 00:43:20;;;;;;;4.23;1.50;;;11.20;99.90;;;;;;5054874;28;20798;-46
2022/06/14 00:46:12;;;;;;;4.10;1.60;;;11.20;99.90;;;;;;5042078;28;20207;-47
2022/06/14 00:48:41;;;;;;;2.43;1.40;;;11.10;99.90;;;;;;5044164;28;20203;-46
2022/06/14 00:51:14;;;;;;;3.80;1.50;;;11.20;99.90;;;;;;5043352;28;20215;-46
2022/06/14 00:53:46;;;;;;;3.40;1.33;;;11.20;99.90;;;;;;5051448;28;20215;-49
2022/06/14 00:56:19;;;;;;;7.53;1.67;;;11.10;99.90;;;;;;5045882;28;20264;-47
2022/06/14 00:58:51;;;;;;;5.30;1.90;;;11.10;99.90;;;;;;5048213;28;20561;-47
2022/06/14 01:01:23;;;;;;;2.03;1.70;;;11.20;99.90;;;;;;5045211;28;20233;-45
2022/06/14 01:03:53;;;;;;;5.27;1.80;;;11.20;99.90;;;;;;5043235;28;20683;-45
2022/06/14 01:06:25;;;;;;;4.10;1.80;;;11.20;99.90;;;;;;5045018;28;20293;-45
2022/06/14 01:08:58;;;;;;;6.13;2.57;;;11.30;99.90;;;;;;5041106;28;20195;-45
2022/06/14 01:11:31;;;;;;;7.13;2.13;;;11.30;99.90;;;;;;5044863;28;20229;-45
2022/06/14 01:14:00;;;;;;;6.53;1.93;;;11.20;99.90;;;;;;5042887;28;20217;-45
2022/06/14 01:16:27;;;;;;;3.63;1.57;;;11.30;99.90;;;;;;5049032;28;20202;-50
2022/06/14 01:18:54;;;;;;;4.50;1.37;;;11.30;99.90;;;;;;5040789;28;20207;-45
2022/06/14 01:21:21;;;;;;;8.90;2.10;;;11.20;99.90;;;;;;5044794;28;20223;-46
2022/06/14 01:23:50;;;;;;;10.30;2.30;;;11.20;99.90;;;;;;5051849;28;20201;-47
2022/06/14 01:26:20;;;;;;;7.27;1.77;;;11.30;99.90;;;;;;5047273;28;20667;-46
2022/06/14 01:28:50;;;;;;;4.63;1.70;;;11.30;99.90;;;;;;5039784;28;20207;-46
2022/06/14 01:31:19;;;;;;;4.30;2.00;;;11.30;99.90;;;;;;5044807;28;20219;-45
2022/06/14 01:33:49;;;;;;;8.17;1.77;;;11.20;99.90;;;;;;5042245;28;20311;-45
2022/06/14 01:36:23;;;;;;;6.67;1.67;;;11.20;99.90;;;;;;5044529;28;20206;-45
2022/06/14 01:38:52;;;;;;;3.90;1.43;;;11.20;99.90;;;;;;5042050;28;20809;-45
2022/06/14 01:41:33;;;;;;;7.60;2.23;;;11.30;99.90;;;;;;5044196;28;20272;-47
2022/06/14 01:44:10;;;;;;;7.73;1.50;;;11.30;99.90;;;;;;5039196;28;20558;-48
2022/06/14 01:46:45;;;;;;;9.03;2.20;;;11.30;99.90;;;;;;5047162;28;20900;-47
2022/06/14 01:52:15;;;;;;;3.13;1.27;;;11.20;99.90;;;;;;5044456;28;20213;-45
2022/06/14 01:54:55;;;;;;;4.23;1.73;;;11.30;99.90;;;;;;5048654;28;20297;-46
2022/06/14 01:57:31;;;;;;;5.80;1.50;;;11.30;99.90;;;;;;5042351;28;20203;-46
2022/06/14 02:00:04;;;;;;;4.40;1.73;;;11.30;99.90;;;;;;5056254;28;20224;-45
2022/06/14 02:02:44;;;;;;;9.73;1.77;;;11.30;99.90;;;;;;5044026;28;20219;-46
2022/06/14 02:05:19;;;;;;;6.80;1.77;;;11.20;99.90;;;;;;5054110;28;20209;-46
2022/06/14 02:07:57;;;;;;;5.70;1.53;;;11.20;99.90;;;;;;5060012;28;20190;-44
2022/06/14 02:10:33;;;;;;;5.63;1.53;;;11.20;99.90;;;;;;5061794;28;20218;-47
2022/06/14 02:13:06;;;;;;;2.70;1.10;;;11.30;99.90;;;;;;5048039;28;20576;-45
2022/06/14 02:15:39;;;;;;;3.83;1.87;;;11.20;99.90;;;;;;5045801;28;20206;-47
2022/06/14 02:18:12;;;;;;;5.10;1.70;;;11.20;99.90;;;;;;5043450;28;20215;-46
2022/06/14 02:20:44;;;;;;;4.57;1.80;;;11.20;99.90;;;;;;5039717;28;20952;-45
2022/06/14 02:23:11;;;;;;;5.93;1.53;;;11.20;99.90;;;;;;5049349;28;20209;-45
2022/06/14 02:25:47;;;;;;;3.50;1.80;;;11.20;99.90;;;;;;5045164;28;20195;-47
2022/06/14 02:28:18;;;;;;;7.63;2.23;;;11.20;99.90;;;;;;5045378;28;20207;-49
2022/06/14 02:30:57;;;;;;;3.57;1.63;;;11.30;99.90;;;;;;5042528;28;20464;-46
2022/06/14 02:33:29;;;;;;;9.63;1.67;;;11.20;99.90;;;;;;5047824;28;20214;-46
2022/06/14 02:36:02;;;;;;;5.77;1.93;;;11.20;99.90;;;;;;5042306;28;20420;-43
2022/06/14 02:38:37;;;;;;;9.37;1.90;;;11.20;99.90;;;;;;5041324;28;20210;-45
2022/06/14 02:41:12;;;;;;;4.23;1.60;;;11.30;99.90;;;;;;5043643;28;20218;-45
2022/06/14 02:43:43;;;;;;;5.03;1.30;;;11.20;99.90;;;;;;5039120;28;20253;-42
2022/06/14 02:46:15;;;;;;;6.70;1.80;;;11.20;99.90;;;;;;5036776;28;20207;-46
2022/06/14 02:48:47;;;;;;;8.57;2.07;;;11.20;99.90;;;;;;5044460;28;20235;-45
2022/06/14 02:51:18;;;;;;;6.77;1.77;;;11.10;99.90;;;;;;5044530;28;20219;-48
2022/06/14 02:53:48;;;;;;;4.73;1.40;;;11.20;99.90;;;;;;5050173;28;20932;-45
2022/06/14 02:56:22;;;;;;;4.83;1.63;;;11.10;99.90;;;;;;5052757;28;20218;-47
2022/06/14 02:58:53;;;;;;;5.20;1.40;;;11.10;99.90;;;;;;5055194;28;20190;-45
2022/06/14 03:01:26;;;;;;;3.40;1.80;;;11.00;99.90;;;;;;5058262;28;20707;-45
2022/06/14 03:03:57;;;;;;;5.23;1.90;;;11.10;99.90;;;;;;5050856;28;20198;-44
2022/06/14 03:06:31;;;;;;;4.23;1.43;;;11.10;99.90;;;;;;5045690;28;20214;-46
2022/06/14 03:09:04;;;;;;;4.00;1.33;;;11.10;99.90;;;;;;5046753;28;20249;-47
2022/06/14 03:11:47;;;;;;;4.13;1.13;;;11.10;99.90;;;;;;5044654;28;20234;-48
2022/06/14 03:14:24;;;;;;;6.93;1.60;;;11.10;99.90;;;;;;5047006;28;20723;-46
2022/06/14 03:17:02;;;;;;;7.63;1.77;;;11.10;99.90;;;;;;5045778;28;20217;-45
2022/06/14 03:19:38;;;;;;;5.87;1.93;;;11.00;99.90;;;;;;5045611;28;20198;-49
2022/06/14 03:22:12;;;;;;;5.67;2.37;;;11.00;99.90;;;;;;5050422;28;20194;-45
2022/06/14 03:24:47;;;;;;;5.23;1.77;;;11.10;99.90;;;;;;5052160;28;20198;-47
2022/06/14 03:27:23;;;;;;;7.23;1.93;;;11.10;99.90;;;;;;5052170;28;20598;-47
2022/06/14 03:29:56;;;;;;;5.70;1.63;;;11.10;99.90;;;;;;5044372;28;20223;-47
2022/06/14 03:32:31;;;;;;;5.07;1.87;;;11.10;99.90;;;;;;5039186;28;20211;-45
2022/06/14 03:35:03;;;;;;;6.53;1.67;;;11.20;99.90;;;;;;5051306;28;20218;-46
2022/06/14 03:37:30;;;;;;;3.40;1.70;;;11.20;99.90;;;;;;5048794;28;20221;-47
2022/06/14 03:40:02;;;;;;;5.30;1.70;;;11.10;99.90;;;;;;5065409;28;20245;-45
2022/06/14 03:42:31;;;;;;;7.87;1.80;;;11.20;99.90;;;;;;5063480;28;20202;-45
2022/06/14 03:44:59;;;;;;;5.87;1.80;;;11.20;99.90;;;;;;5053602;28;20194;-47
2022/06/14 03:47:28;;;;;;;5.83;1.70;;;11.20;99.90;;;;;;5042699;28;20421;-45
2022/06/14 03:49:59;;;;;;;11.03;2.07;;;11.20;99.90;;;;;;5052475;28;20314;-48
2022/06/14 03:52:42;;;;;;;4.33;1.50;;;11.20;99.90;;;;;;5045939;28;20278;-50
2022/06/14 03:55:23;;;;;;;5.27;1.63;;;11.20;99.90;;;;;;5046456;28;20246;-46
2022/06/14 03:58:03;;;;;;;5.37;1.97;;;11.10;99.90;;;;;;5046274;28;20202;-47
2022/06/14 04:00:38;;;;;;;7.20;2.20;;;11.20;99.90;;;;;;5044375;28;20281;-47
2022/06/14 04:03:20;;;;;;;8.00;1.50;;;11.30;99.90;;;;;;5043630;28;20207;-46
2022/06/14 04:06:02;;;;;;;7.10;1.93;;;11.40;99.90;;;;;;5050672;28;20621;-45
2022/06/14 04:08:40;;;;;;;6.17;1.73;;;11.30;99.90;;;;;;5052005;28;20440;-47
2022/06/14 04:11:22;;;;;;;3.83;1.60;;;11.40;99.90;;;;;;5051667;28;20221;-46
2022/06/14 04:13:56;;;;;;;6.33;2.20;;;11.40;99.90;;;;;;5045965;28;20218;-45
2022/06/14 04:16:27;;;;;;;3.67;1.80;;;11.40;99.90;;;;;;5043210;28;20226;-45
2022/06/14 04:19:03;;;;;;;6.60;2.23;;;11.50;99.90;;;;;;5043730;28;20216;-49
2022/06/14 04:21:38;;;;;;;6.53;1.87;;;11.50;99.90;;;;;;5049401;28;20522;-46
2022/06/14 04:24:12;;;;;;;5.23;1.90;;;11.50;99.90;;;;;;5048675;28;20244;-46
2022/06/14 04:26:46;;;;;;;6.27;2.00;;;11.50;99.90;;;;;;5056247;28;20203;-49
2022/06/14 04:29:23;;;;;;;8.50;2.93;;;11.50;99.90;;;;;;5044496;28;20198;-47
2022/06/14 04:31:56;;;;;;;7.47;1.93;;;11.60;99.90;;;;;;5044643;28;20309;-47
2022/06/14 04:34:29;;;;;;;5.20;1.40;;;11.50;99.90;;;;;;5044704;28;20883;-46
2022/06/14 04:37:02;;;;;;;6.13;2.37;;;11.60;99.90;;;;;;5054026;28;20224;-45
2022/06/14 04:39:35;;;;;;;3.53;1.57;;;11.50;99.90;;;;;;5058740;28;20206;-47
2022/06/14 04:42:09;;;;;;;4.10;1.50;;;11.60;99.90;;;;;;5049347;28;20225;-45
2022/06/14 04:44:42;;;;;;;5.37;1.70;;;11.70;99.90;;;;;;5043686;28;20198;-47
2022/06/14 04:47:14;;;;;;;7.07;2.37;;;11.70;99.90;;;;;;5045147;28;20201;-48
2022/06/14 04:49:46;;;;;;;6.63;1.97;;;11.70;99.90;;;;;;5040012;28;20211;-47
2022/06/14 04:52:18;;;;;;;4.43;1.77;;;11.80;99.90;;;;;;5050532;28;20860;-47
2022/06/14 04:54:52;;;;;;;5.70;2.20;;;11.90;99.90;;;;;;5038123;28;21742;-44
2022/06/14 04:57:25;;;;;;;5.83;2.27;;;12.00;99.90;;;;;;5049557;28;20194;-45
2022/06/14 04:59:57;;;;;;;4.07;1.57;;;12.10;99.90;;;;;;5043129;28;20242;-51
2022/06/14 05:02:28;;;;;;;3.93;1.67;;;12.30;99.90;;;;;;5049683;28;20558;-47
2022/06/14 05:04:58;;;;;;;5.87;2.10;;;12.30;99.90;;;;;;5035528;28;20210;-50
2022/06/14 05:07:31;;;;;;;4.83;1.70;;;12.50;99.90;;;;;;5047029;28;20574;-47
2022/06/14 05:10:02;;;;;;;7.90;2.17;;;12.60;99.90;;;;;;5040390;28;20237;-50
2022/06/14 05:12:33;;;;;;;6.00;1.57;;;12.70;99.90;;;;;;5048517;28;20361;-47
2022/06/14 05:15:06;;;;;;;6.20;1.57;;;12.70;99.90;;;;;;5045983;28;20301;-45
2022/06/14 05:17:38;;;;;;;7.03;1.70;;;12.80;99.90;;;;;;5036448;28;20199;-44
2022/06/14 05:20:11;;;;;;;5.93;1.60;;;12.90;99.90;;;;;;5038795;28;20221;-46
2022/06/14 05:22:42;;;;;;;5.03;1.30;;;12.90;99.90;;;;;;5052127;28;20669;-43
2022/06/14 05:25:11;;;;;;;4.43;1.20;;;13.00;99.90;;;;;;5040260;28;20207;-43
2022/06/14 05:27:47;;;;;;;3.17;1.77;;;13.00;99.90;;;;;;5042166;28;20986;-43
2022/06/14 05:30:29;;;;;;;5.57;2.03;;;13.00;99.90;;;;;;5045562;28;20707;-43
2022/06/14 05:33:31;;;;;;;5.27;1.57;;;13.00;99.90;;;;;;5041000;28;20210;-49
2022/06/14 05:36:08;;;;;;;6.83;2.00;;;13.00;99.90;;;;;;5032213;28;20230;-45
2022/06/14 05:38:43;;;;;;;7.53;2.10;;;13.00;99.90;;;;;;5044924;28;20715;-43
2022/06/14 05:41:15;;;;;;;7.23;1.57;;;13.10;99.90;;;;;;5041679;28;20226;-43
2022/06/14 05:43:45;;;;;;;5.90;1.93;;;13.10;99.90;;;;;;5046172;28;20914;-45
2022/06/14 05:46:20;;;;;;;6.07;1.80;;;13.00;99.90;;;;;;5048162;28;20199;-46
2022/06/14 05:48:51;;;;;;;8.60;2.27;;;13.00;99.90;;;;;;5042317;28;20206;-43
2022/06/14 05:51:21;;;;;;;9.40;1.97;;;13.00;99.90;;;;;;5048673;28;20222;-47
2022/06/14 05:53:54;;;;;;;9.23;1.70;;;13.00;99.90;;;;;;5052338;28;20271;-45
2022/06/14 05:56:31;;;;;;;6.30;1.70;;;13.00;99.90;;;;;;5043834;28;20199;-49
2022/06/14 05:59:04;;;;;;;7.57;1.73;;;13.00;99.90;;;;;;5051588;28;20214;-44
2022/06/14 06:01:35;;;;;;;5.47;1.80;;;13.00;99.90;;;;;;5043916;28;20553;-47
2022/06/14 06:04:08;;;;;;;7.03;1.60;;;13.10;99.90;;;;;;5045479;28;20211;-48
2022/06/14 06:06:44;;;;;;;5.40;1.50;;;13.10;99.90;;;;;;5039496;28;20203;-46
2022/06/14 06:09:18;;;;;;;7.27;1.93;;;13.10;99.90;;;;;;5042302;28;20679;-44
2022/06/14 06:11:51;;;;;;;5.47;1.93;;;13.10;99.90;;;;;;5049718;28;20233;-47
2022/06/14 06:14:21;;;;;;;3.17;1.50;;;13.10;99.90;;;;;;5042364;28;20230;-44
2022/06/14 06:16:55;;;;;;;5.30;1.97;;;13.20;99.90;;;;;;5051432;28;20202;-46
2022/06/14 06:19:25;;;;;;;4.90;2.00;;;13.20;99.90;;;;;;5035239;28;20369;-44
2022/06/14 06:21:58;;;;;;;4.80;2.00;;;13.20;99.90;;;;;;5046187;28;20215;-47
2022/06/14 06:24:33;;;;;;;8.57;1.83;;;13.20;99.90;;;;;;5033798;28;20204;-46
2022/06/14 06:27:04;;;;;;;6.23;2.03;;;13.30;99.90;;;;;;5044786;28;20232;-44
2022/06/14 06:29:39;;;;;;;7.47;1.77;;;13.40;99.90;;;;;;5059711;28;20205;-47
2022/06/14 06:32:08;;;;;;;7.77;1.73;;;13.60;99.90;;;;;;5052173;28;20240;-46
2022/06/14 06:34:37;;;;;;;8.10;2.03;;;13.70;99.90;;;;;;5040225;28;20229;-49
2022/06/14 06:37:10;;;;;;;9.70;1.80;;;13.80;99.90;;;;;;5042758;28;20203;-44
2022/06/14 06:39:44;;;;;;;6.50;2.50;;;13.90;99.90;;;;;;5043586;28;20207;-44
2022/06/14 06:42:16;;;;;;;6.17;1.80;;;14.00;99.90;;;;;;5036252;28;20203;-44
2022/06/14 06:44:53;;;;;;;9.00;1.90;;;13.90;99.90;;;;;;5048781;28;20215;-45
2022/06/14 06:47:27;;;;;;;4.67;1.97;;;14.00;99.90;;;;;;5048303;28;20955;-44
2022/06/14 06:50:16;;;;;;;10.13;2.23;;;14.00;99.90;;;;;;5043007;28;20221;-45
2022/06/14 06:52:50;;;;;;;4.23;1.53;;;14.10;99.90;;;;;;5049265;28;20555;-44
2022/06/14 06:55:34;;;;;;;9.80;2.27;;;14.20;99.90;;;;;;5029558;28;20252;-44
2022/06/14 06:58:04;;;;;;;8.73;1.90;;;14.30;99.90;;;;;;5044298;28;20564;-45
2022/06/14 07:00:33;;;;;;;10.00;2.13;;;14.30;99.90;;;;;;5048112;28;20210;-45
2022/06/14 07:03:09;;;;;;;3.20;1.43;;;14.30;99.90;;;;;;5048334;28;20279;-48
2022/06/14 07:05:35;;;;;;;4.27;1.50;;;14.40;99.90;;;;;;5039969;28;20573;-47
2022/06/14 07:08:07;;;;;;;5.50;1.80;;;14.50;99.90;;;;;;5041722;28;20199;-44
2022/06/14 07:10:39;;;;;;;10.93;2.33;;;14.50;99.90;;;;;;5038744;28;20234;-45
2022/06/14 07:13:15;;;;;;;7.20;2.00;;;14.50;99.90;;;;;;5049961;28;20199;-44
2022/06/14 07:15:45;;;;;;;8.03;2.13;;;14.50;99.90;;;;;;5047762;28;20703;-46
2022/06/14 07:18:20;;;;;;;6.83;2.37;;;14.60;99.90;;;;;;5050181;28;20346;-46
2022/06/14 07:20:52;;;;;;;6.20;1.97;;;14.60;99.90;;;;;;5054577;28;20241;-49
2022/06/14 07:23:28;;;;;;;7.53;2.00;;;14.60;99.90;;;;;;5041723;28;20274;-46
2022/06/14 07:26:03;;;;;;;6.77;1.70;;;14.70;99.90;;;;;;5039853;28;20202;-46
2022/06/14 07:28:36;;;;;;;6.40;1.60;;;14.70;99.90;;;;;;5042238;28;21021;-47
2022/06/14 07:31:06;;;;;;;8.27;1.70;;;14.70;99.90;;;;;;5045923;28;20557;-49
2022/06/14 07:33:37;;;;;;;10.57;2.40;;;14.70;99.90;;;;;;5042175;28;20211;-46
2022/06/14 07:36:12;;;;;;;5.33;1.60;;;14.80;99.90;;;;;;5047780;28;20711;-46
2022/06/14 07:38:49;;;;;;;4.73;1.80;;;14.90;99.90;;;;;;5044666;28;20195;-49
2022/06/14 07:41:22;;;;;;;8.03;1.50;;;15.00;99.90;;;;;;5037020;28;20207;-45
2022/06/14 07:43:57;;;;;;;10.07;1.70;;;15.10;99.90;;;;;;5051987;28;20195;-45
2022/06/14 07:46:33;;;;;;;7.40;1.60;;;15.10;99.90;;;;;;5044599;28;20194;-43
2022/06/14 07:49:09;;;;;;;8.80;2.20;;;15.10;99.90;;;;;;5056052;28;20198;-46
2022/06/14 07:51:40;;;;;;;6.37;1.60;;;15.10;99.90;;;;;;5051627;28;20237;-44
2022/06/14 07:54:13;;;;;;;5.07;1.60;;;15.10;99.90;;;;;;5045971;28;20203;-44
2022/06/14 07:56:48;;;;;;;4.70;1.60;;;15.10;99.90;;;;;;5040430;28;20222;-44
2022/06/14 07:59:18;;;;;;;4.97;1.67;;;15.10;99.90;;;;;;5048532;28;20384;-44
2022/06/14 08:01:53;;;;;;;6.87;1.60;;;15.10;99.90;;;;;;5044766;28;20227;-44
2022/06/14 08:04:27;;;;;;;5.23;1.57;;;15.20;99.90;;;;;;5041878;28;20401;-45
2022/06/14 08:06:59;;;;;;;8.37;1.30;;;15.10;99.90;;;;;;5049842;28;20235;-46
2022/06/14 08:09:32;;;;;;;3.97;1.33;;;15.10;99.90;;;;;;5044359;28;20206;-44
2022/06/14 08:12:01;;;;;;;4.87;1.50;;;15.10;99.90;;;;;;5046669;28;20199;-45
2022/06/14 08:14:34;;;;;;;5.47;1.63;;;15.20;99.90;;;;;;5045561;28;20195;-44
2022/06/14 08:17:03;;;;;;;5.07;1.80;;;15.30;99.90;;;;;;5049903;28;20248;-45
2022/06/14 08:19:36;;;;;;;7.20;1.47;;;15.40;99.90;;;;;;5054984;28;20879;-44
2022/06/14 08:22:08;;;;;;;6.47;1.77;;;15.40;99.90;;;;;;5047497;28;20593;-43
2022/06/14 08:24:39;;;;;;;7.37;1.67;;;15.40;99.90;;;;;;5052204;28;20554;-46
2022/06/14 08:27:10;;;;;;;4.87;1.50;;;15.30;99.90;;;;;;5041117;28;20214;-46
2022/06/14 08:29:41;;;;;;;6.30;1.50;;;15.20;99.90;;;;;;5053575;28;20195;-46
2022/06/14 08:32:12;;;;;;;4.27;1.77;;;15.10;99.90;;;;;;5044168;28;20215;-45
2022/06/14 08:34:45;;;;;;;5.10;1.60;;;15.10;99.90;;;;;;5048891;28;20238;-44
2022/06/14 08:37:19;;;;;;;5.30;1.70;;;15.10;99.90;;;;;;5042401;28;20198;-45
2022/06/14 08:39:50;;;;;;;5.27;1.47;;;15.10;99.90;;;;;;5053686;28;20714;-44
2022/06/14 08:42:27;;;;;;;6.30;2.00;;;15.20;99.90;;;;;;5040223;28;20927;-46
2022/06/14 08:44:59;;;;;;;6.67;1.20;;;15.20;99.90;;;;;;5055996;28;20253;-44
2022/06/14 08:47:52;;;;;;;5.00;1.40;;;15.20;99.90;;;;;;5047908;28;20276;-47
2022/06/14 08:50:49;;;;;;;5.87;1.27;;;15.30;99.90;;;;;;5046506;28;20207;-44
2022/06/14 08:54:02;;;;;;;7.27;1.97;;;15.40;99.90;;;;;;5040100;28;20206;-44
2022/06/14 08:56:44;;;;;;;6.80;1.67;;;15.60;99.90;;;;;;5055635;28;20235;-44
2022/06/14 08:59:38;;;;;;;7.07;1.40;;;15.80;99.90;;;;;;5037258;28;20285;-46
2022/06/14 09:02:27;;;;;;;12.00;1.87;;;16.00;99.90;;;;;;5047553;28;20570;-46
2022/06/14 09:05:20;;;;;;;5.87;1.53;;;16.00;99.90;;;;;;5044852;28;20221;-45
2022/06/14 09:08:17;;;;;;;3.67;1.20;;;16.00;99.90;;;;;;5048287;28;20878;-46
2022/06/14 09:11:02;;;;;;;4.60;1.53;;;16.20;99.90;;;;;;5050266;28;20229;-44
2022/06/14 09:13:52;;;;;;;3.73;1.43;;;16.70;99.90;;;;;;5042160;28;20261;-44
2022/06/14 09:16:58;;;;;;;3.60;1.10;;;16.60;99.90;;;;;;5047837;28;20927;-45
2022/06/14 09:19:42;;;;;;;4.60;1.70;;;16.50;99.90;;;;;;5050971;28;20277;-45
2022/06/14 09:22:11;;;;;;;5.23;1.80;;;16.40;99.90;;;;;;5038875;28;20238;-45
2022/06/14 09:24:55;;;;;;;3.10;1.30;;;16.50;99.90;;;;;;5059866;28;20210;-46
2022/06/14 09:27:40;;;;;;;5.10;1.20;;;16.50;99.90;;;;;;5039561;28;20203;-45
2022/06/14 09:30:39;;;;;;;4.17;1.33;;;16.40;99.90;;;;;;5034965;28;20219;-46
2022/06/14 09:33:46;;;;;;;4.67;1.13;;;16.40;99.90;;;;;;5045520;28;20200;-46
2022/06/14 09:36:42;;;;;;;4.10;1.03;;;16.40;99.90;;;;;;5045245;28;20238;-44
2022/06/14 09:39:40;;;;;;;5.63;1.20;;;16.60;99.90;;;;;;5053209;28;20226;-48
2022/06/14 09:42:40;;;;;;;3.00;0.83;;;16.70;99.90;;;;;;5047726;28;20222;-44
2022/06/14 09:45:30;;;;;;;2.30;1.00;;;16.80;99.90;;;;;;5052933;28;20202;-43
2022/06/14 09:48:17;;;;;;;3.77;1.30;;;16.60;99.90;;;;;;5053280;28;20225;-44
2022/06/14 09:51:03;;;;;;;6.50;1.10;;;16.60;99.90;;;;;;5047089;28;20217;-44
2022/06/14 09:54:08;;;;;;;2.13;0.90;;;16.70;99.90;;;;;;5047570;28;20195;-44
2022/06/14 09:56:54;;;;;;;6.33;1.37;;;16.80;99.90;;;;;;5026528;28;20314;-46
2022/06/14 09:59:51;;;;;;;4.93;0.90;;;16.70;99.90;;;;;;5045253;28;20225;-46
2022/06/14 10:02:29;;;;;;;4.30;1.07;;;16.80;99.90;;;;;;5046140;28;20702;-44
2022/06/14 10:05:18;;;;;;;5.17;1.37;;;16.80;99.90;;;;;;5046826;28;20204;-46
2022/06/14 10:07:58;;;;;;;6.17;1.23;;;16.80;99.90;;;;;;5050240;28;20199;-48
2022/06/14 10:10:44;;;;;;;4.07;1.07;;;16.80;99.90;;;;;;5042483;28;20229;-45
2022/06/14 10:13:52;;;;;;;3.60;1.40;;;16.70;99.90;;;;;;5047546;28;20191;-46
2022/06/14 10:16:44;;;;;;;4.93;1.30;;;16.70;99.90;;;;;;5038811;28;20578;-48
2022/06/14 10:19:27;;;;;;;3.53;0.93;;;16.80;99.90;;;;;;5052712;28;20199;-48
2022/06/14 10:22:07;;;;;;;3.43;1.23;;;16.90;99.90;;;;;;5047180;28;20424;-49
2022/06/14 10:24:39;;;;;;;2.87;1.10;;;16.90;99.90;;;;;;5047711;28;20199;-46
2022/06/14 10:30:10;;;;;;;2.83;1.47;;;17.00;99.90;;;;;;5046984;28;20264;-47
2022/06/14 10:32:51;;;;;;;4.27;1.00;;;17.00;99.90;;;;;;5040320;28;20243;-44
2022/06/14 10:35:26;;;;;;;2.83;1.10;;;17.10;99.90;;;;;;5052106;28;20201;-46
2022/06/14 10:38:22;;;;;;;4.43;1.73;;;17.10;99.90;;;;;;5046140;28;20308;-44
2022/06/14 10:40:57;;;;;;;4.87;1.63;;;17.00;99.90;;;;;;5044861;28;20213;-44
2022/06/14 10:43:32;;;;;;;3.70;1.20;;;17.10;99.90;;;;;;5040023;28;20256;-44
2022/06/14 10:46:05;;;;;;;2.63;1.20;;;17.20;99.90;;;;;;5045579;28;20735;-46
2022/06/14 10:49:09;;;;;;;5.50;1.40;;;17.30;99.90;;;;;;5039860;28;20217;-44
2022/06/14 10:51:50;;;;;;;4.70;1.07;;;17.30;99.90;;;;;;5023080;28;20234;-46
2022/06/14 10:54:24;;;;;;;4.27;1.17;;;17.30;99.90;;;;;;5050792;28;20692;-51
2022/06/14 10:57:15;;;;;;;2.47;1.07;;;17.30;99.90;;;;;;5043577;28;20715;-45
2022/06/14 11:00:09;;;;;;;4.13;1.27;;;17.20;99.90;;;;;;5040836;28;20204;-46
2022/06/14 11:02:53;;;;;;;2.80;0.90;;;17.50;99.90;;;;;;5032364;28;20659;-47
2022/06/14 11:05:29;;;;;;;3.20;1.47;;;17.60;99.90;;;;;;5049766;28;20191;-46
2022/06/14 11:08:17;;;;;;;4.50;1.10;;;;;;;;;;5044226;28;20206;-45
2022/06/14 11:10:54;;;;;;;2.17;1.00;;;;;;;;;;5014039;28;20952;-44
2022/06/14 11:13:28;;;;;;;2.93;1.20;;;;;;;;;;5042808;28;20206;-43
2022/06/14 11:16:02;;;;;;;3.17;1.03;;;18.00;99.90;;;;;;5043198;28;20214;-46
2022/06/14 11:18:56;;;;;;;1.97;0.83;;;18.10;99.90;;;;;;5043308;28;20214;-43
2022/06/14 11:21:46;;;;;;;2.17;0.93;;;17.90;99.90;;;;;;5058528;28;20225;-44
2022/06/14 11:24:20;;;;;;;1.50;0.97;;;17.80;99.90;;;;;;5049578;28;20900;-44
2022/06/14 11:26:56;;;;;;;2.23;0.80;;;17.80;99.90;;;;;;5050408;28;20283;-45
2022/06/14 11:29:31;;;;;;;3.23;1.00;;;17.90;99.90;;;;;;5048447;28;20283;-45
2022/06/14 11:32:03;;;;;;;4.10;1.10;;;18.00;99.70;;;;;;5050910;28;20203;-44
2022/06/14 11:34:47;;;;;;;0.87;0.70;;;18.10;99.80;;;;;;5047930;28;20207;-45
2022/06/14 11:37:28;;;;;;;3.40;1.20;;;18.20;99.90;;;;;;5052353;28;20223;-46
2022/06/14 11:39:59;;;;;;;4.10;1.20;;;18.10;99.90;;;;;;5039592;28;20227;-46
2022/06/14 11:42:30;;;;;;;3.07;1.10;;;18.30;99.90;;;;;;5048863;28;20286;-44
2022/06/14 11:45:08;;;;;;;2.43;0.90;;;18.20;99.90;;;;;;5047398;28;20210;-49
2022/06/14 11:47:42;;;;;;;2.43;0.87;;;18.20;99.60;;;;;;5055441;28;20195;-43
2022/06/14 11:50:16;;;;;;;2.30;0.80;;;18.30;99.70;;;;;;5034392;28;20238;-45
2022/06/14 11:53:01;;;;;;;1.30;0.83;;;18.20;99.80;;;;;;5053488;28;20209;-43
2022/06/14 11:55:36;;;;;;;2.17;0.90;;;18.30;99.90;;;;;;5045228;28;20202;-45
2022/06/14 11:58:19;;;;;;;3.47;1.10;;;18.50;99.60;;;;;;5053486;28;20219;-47
2022/06/14 12:01:00;;;;;;;3.83;1.00;;;18.70;99.90;;;;;;5049870;28;20226;-44
2022/06/14 12:04:01;;;;;;;4.30;1.10;;;18.90;99.80;;;;;;5052348;28;20195;-43
2022/06/14 12:06:38;;;;;;;3.60;1.37;;;18.70;98.40;;;;;;5044705;28;20199;-45
2022/06/14 12:09:41;;;;;;;3.87;0.90;;;18.50;99.50;;;;;;5058652;28;20204;-46
2022/06/14 12:12:17;;;;;;;1.80;0.97;;;18.40;98.70;;;;;;5045760;28;20245;-48
2022/06/14 12:14:56;;;;;;;1.13;0.73;;;18.40;99.40;;;;;;5047954;28;20237;-44
2022/06/14 12:17:26;;;;;;;3.03;1.20;;;18.50;99.10;;;;;;5054119;28;20209;-47
2022/06/14 12:20:02;;;;;;;0.97;0.80;;;18.40;98.50;;;;;;5056768;28;20226;-44
2022/06/14 12:22:36;;;;;;;3.23;0.80;;;18.50;98.80;;;;;;5047178;28;20264;-44
2022/06/14 12:27:56;;;;;;;3.50;0.73;;;18.50;99.10;;;;;;5047273;28;20668;-45
2022/06/14 12:30:25;;;;;;;2.17;0.90;;;18.50;99.20;;;;;;5043916;28;20225;-45
2022/06/14 12:32:59;;;;;;;3.07;0.90;;;18.50;98.90;;;;;;5054316;28;20199;-43
2022/06/14 12:35:30;;;;;;;2.97;1.20;;;18.50;99.50;;;;;;5041071;28;20202;-46
2022/06/14 12:38:01;;;;;;;2.67;0.90;;;18.50;99.20;;;;;;5044556;28;20223;-44
2022/06/14 12:40:37;;;;;;;1.87;0.97;;;18.50;99.10;;;;;;5050173;28;20280;-44
2022/06/14 12:43:15;;;;;;;3.27;1.00;;;18.60;98.90;;;;;;5047679;28;20195;-46
2022/06/14 12:45:45;;;;;;;2.20;0.70;;;18.50;98.90;;;;;;5043579;28;20206;-43
2022/06/14 12:48:26;;;;;;;3.07;0.67;;;18.50;98.50;;;;;;5052991;28;20223;-46
2022/06/14 12:50:59;;;;;;;1.83;1.03;;;18.30;98.50;;;;;;5055354;28;20218;-44
2022/06/14 12:53:36;;;;;;;2.97;1.00;;;18.30;99.20;;;;;;5041977;28;20286;-44
2022/06/14 12:56:11;;;;;;;1.40;0.70;;;18.30;99.00;;;;;;5044552;28;20191;-45
2022/06/14 12:58:45;;;;;;;2.33;1.03;;;18.40;98.90;;;;;;5042265;28;20327;-44
2022/06/14 13:01:18;;;;;;;2.37;0.77;;;18.40;98.60;;;;;;5042834;28;20217;-44
2022/06/14 13:03:51;;;;;;;1.77;0.80;;;18.30;98.90;;;;;;5043715;28;20203;-44
2022/06/14 13:06:39;;;;;;;2.93;1.10;;;18.30;98.90;;;;;;5050338;28;20214;-46
2022/06/14 13:09:15;;;;;;;2.23;0.70;;;18.20;99.30;;;;;;5040205;28;20214;-44
2022/06/14 13:11:54;;;;;;;1.40;0.80;;;18.30;99.90;;;;;;5052072;28;20215;-48
2022/06/14 13:14:25;;;;;;;1.37;0.73;;;18.40;99.10;;;;;;5047794;28;20847;-43
2022/06/14 13:17:08;;;;;;;2.30;0.70;;;18.40;98.80;;;;;;5037652;28;20211;-44
2022/06/14 13:19:41;;;;;;;0.67;0.60;;;18.60;97.80;;;;;;5051741;28;20206;-44
2022/06/14 13:22:43;;;;;;;1.50;0.67;;;18.80;97.60;;;;;;5053354;28;20899;-43
2022/06/14 13:25:30;;;;;;;2.07;0.77;;;18.90;97.00;;;;;;5045263;28;20218;-44
2022/06/14 13:28:12;;;;;;;2.43;1.00;;;18.90;96.90;;;;;;5043378;28;20226;-44
2022/06/14 13:30:47;;;;;;;0.90;0.50;;;18.80;97.00;;;;;;5043609;28;20238;-44
2022/06/14 13:33:26;;;;;;;2.13;0.80;;;18.60;97.10;;;;;;5047516;28;20285;-44
2022/06/14 13:36:00;;;;;;;1.53;0.53;;;18.60;97.10;;;;;;5051821;28;20891;-45
2022/06/14 13:38:31;;;;;;;1.47;0.60;;;18.60;97.40;;;;;;5045677;28;20219;-44
2022/06/14 13:41:06;;;;;;;1.47;1.00;;;18.70;97.10;;;;;;5037804;28;20303;-45
2022/06/14 13:43:40;;;;;;;1.67;0.60;;;18.90;97.20;;;;;;5049819;28;20206;-44